Latest Coastal Weather Observations for Wilsons Promontory

IDT60701

Issued at 3:21 am EST Monday 27 April 2015 (issued every 10 minutes, with the page automatically refreshed every 10 minutes)

About coastal observations | Map of coastal stations | Coastal observations for TAS | Marine services | Other Formats
Station Details ID: 085096 Name: WILSONS PROMONTORY LIGHTHOUSE Lat: -39.13 Lon: 146.42 Height: 95.0 m
Data from the previous 72 hours. | See also: Recent months at Wilsons Promontory
Date/Time
EST
Temp

°C
Wind Pressure Rain
since 9am
mm
Weather Cloud Vis
km
Sea
Height
m
Swell
Dir
 
Speed
knots
Gust
knots
hPa Trend Height
m
Period
s
Dir
27/03:00am 12.6 SW 40 47 1015.4 - 2.4 - - - - - - -
27/02:30am 12.6 SW 35 45 1015.5 - 2.4 - - - - - - -
27/02:02am 12.5 SW 31 44 1015.5 - 2.4 - - - - - - -
27/02:00am 12.5 S 21 42 1015.5 - 2.4 - - - - - - -
27/01:52am 12.5 SW 38 43 1015.7 - 2.4 - - - - - - -
27/01:49am 12.6 SW 26 43 1015.6 - 2.4 - - - - - - -
27/01:47am 12.7 SSW 25 41 1015.6 - 2.4 - - - - - - -
27/01:33am 12.5 SW 39 43 1015.6 - 2.4 - - - - - - -
27/01:32am 12.4 SW 28 43 1015.6 - 2.4 - - - - - - -
27/01:31am 12.7 SW 22 43 1015.6 - 2.4 - - - - - - -
27/01:30am 12.4 SW 35 44 1015.5 - 2.4 - - - - - - -
27/01:00am 12.7 SW 33 44 1015.2 - 2.4 - - - - - - -
27/12:30am 12.7 SW 38 48 1015.2 - 2.4 - - - - - - -
27/12:00am 12.5 SW 35 45 1015.2 - 2.4 - - - - - - -
 
Date/Time
EST
Temp

°C
Wind Pressure Rain
since 9am
mm
Weather Cloud Vis
km
Sea
Height
m
Swell
Dir
 
Speed
knots
Gust
knots
hPa Trend Height
m
Period
s
Dir
26/11:50pm 12.7 SW 31 41 1015.4 - 2.4 - - - - - - -
26/11:30pm 11.8 SW 34 42 1015.9 - 2.4 - - - - - - -
26/11:01pm 12.7 SW 33 43 1015.3 - 1.8 - - - - - - -
26/11:00pm 13.0 SW 33 40 1015.4 - 1.8 - - - - - - -
26/10:49pm 12.6 SW 36 40 1015.8 - 1.8 - - - - - - -
26/10:39pm 12.7 SW 23 40 1015.8 - 1.8 - - - - - - -
26/10:30pm 12.8 SW 37 42 1015.6 - 1.8 - - - - - - -
26/10:12pm 12.4 SW 31 42 1015.5 - 1.8 - - - - - - -
26/10:00pm 12.9 WSW 31 40 1015.9 - 1.8 - - - - - - -
26/09:43pm 12.3 WSW 38 42 1015.5 - 1.8 - - - - - - -
26/09:30pm 12.2 W 25 35 1016.3 - 1.8 - - - - - - -
26/09:29pm 12.4 W 25 35 1016.1 - 1.8 - - - - - - -
26/09:24pm 12.1 W 26 43 1016.3 - 1.6 - - - - - - -
26/09:12pm 12.3 WSW 37 48 1015.6 - 1.6 - - - - - - -
26/09:11pm 12.6 WSW 40 48 1015.3 - 1.6 - - - - - - -
26/09:00pm 12.7 W 25 35 1016.0 - 1.6 - - - - - - -
26/08:42pm 12.4 W 24 37 1016.0 - 1.6 - - - - - - -
26/08:40pm 12.6 W 24 40 1015.9 - 1.6 - - - - - - -
26/08:33pm 11.9 WSW 36 46 1015.5 - 1.6 - - - - - - -
26/08:30pm 11.6 WSW 38 46 1015.2 - 1.6 - - - - - - -
26/08:23pm 12.5 WSW 41 44 1015.0 - 1.2 - - - - - - -
26/08:02pm 12.8 W 27 37 1015.9 - 1.2 - - - - - - -
26/08:00pm 12.5 W 28 37 1015.9 - 1.2 - - - - - - -
26/07:30pm 11.9 W 29 39 1016.0 - 1.2 - - - - - - -
26/07:00pm 12.2 WSW 30 49 1014.8 - 0.6 - - - - - - -
26/06:30pm 13.2 WSW 32 43 1015.3 - 0.6 - - - - - - -
26/06:03pm 13.3 WSW 35 45 1014.8 - 0.6 - - - - - - -
26/06:00pm 13.6 WSW 37 45 1014.6 - 0.6 - - - - - - -
26/05:44pm 13.5 WSW 36 43 1014.5 - 0.6 - - - - - - -
26/05:33pm 13.2 W 23 33 1015.1 - 0.6 - - - - - - -
26/05:30pm 12.8 W 23 31 1015.4 - 0.6 - - - - - - -
26/05:09pm 12.7 WSW 30 47 1014.7 - 0.6 - - - - - - -
26/05:07pm 13.0 WSW 33 49 1014.6 - 0.6 - - - - - - -
26/05:00pm 12.6 SW 45 50 1013.9 - 0.6 - - - - - - -
26/04:45pm 13.3 WSW 39 49 1013.9 - 0.6 - - - - - - -
26/04:39pm 13.2 WSW 37 44 1013.9 - 0.6 - - - - - - -
26/04:33pm 13.1 W 24 45 1014.5 - 0.6 - - - - - - -
26/04:30pm 12.7 W 21 45 1014.8 - 0.6 - - - - - - -
26/04:02pm 13.5 WSW 32 43 1014.0 - 0.4 - - - - - - -
26/04:00pm 13.7 WSW 34 43 1013.9 - 0.4 - - - - - - -
26/03:53pm 13.4 WSW 39 43 1013.8 - 0.4 - - - - - - -
26/03:41pm 12.8 WSW 27 38 1014.0 - 0.4 - - - - - - -
26/03:30pm 12.2 WSW 26 42 1014.4 - 0.4 - - - - - - -
26/03:28pm 12.2 WSW 27 44 1014.3 - 0.4 - - - - - - -
26/03:25pm 11.8 SW 40 51 1014.0 - 0.4 - - - - - - -
26/03:15pm 11.5 WSW 44 50 1013.2 - 0.4 - - - - - - -
26/03:00pm 12.4 WSW 29 39 1013.9 - 0.4 - - - - - - -
26/02:30pm 12.1 WSW 32 43 1013.5 - 0.4 - - - - - - -
26/02:10pm 12.4 WSW 30 40 1014.0 - 0.0 - - - - - - -
26/02:00pm 12.6 WSW 30 38 1013.7 - 0.0 - - - - - - -
26/01:31pm 13.6 WSW 29 39 1013.9 - 0.0 - - - - - - -
26/01:30pm 13.5 WSW 30 39 1014.0 - 0.0 - - - - - - -
26/01:05pm 13.3 WSW 33 43 1013.5 - 0.0 - - - - - - -
26/01:00pm 13.3 WSW 36 43 1013.6 - 0.0 - - - - - - -
26/12:30pm 12.9 SW 35 43 1013.5 - 0.0 - - - - - - -
26/12:00pm 12.8 SW 36 42 1013.7 - 0.0 - - - - - - -
26/11:30am 12.6 SW 36 46 1013.6 - 0.0 - - - - - - -
26/11:03am 12.4 SW 36 46 1013.8 - 0.0 - - - - - - -
26/11:00am 12.5 SW 37 46 1013.3 - 0.0 - - - - - - -
26/10:49am 12.4 SW 35 45 1013.3 - 0.0 - - - - - - -
26/10:30am 12.4 SW 38 43 1013.5 - 0.0 - - - - - - -
26/10:00am 12.1 SW 37 44 1013.6 - 0.0 - - - - - - -
26/09:41am 12.1 SW 38 44 1013.4 - 0.0 - - - - - - -
26/09:39am 11.9 SW 26 44 1013.4 - 0.0 - - - - - - -
26/09:30am 11.9 SW 40 46 1013.5 - 0.0 - - - - - - -
26/09:00am 11.9 SW 34 42 1013.4 - 6.0 - - - - - - -
26/08:48am 11.8 SW 36 46 1013.5 - 6.0 - - - - - - -
26/08:30am 11.7 SW 37 45 1013.4 - 6.0 - - - - - - -
26/08:00am 11.8 SW 38 45 1012.9 - 6.0 - - - - - - -
26/07:30am 11.9 WSW 36 43 1012.6 - 6.0 - - - - - - -
26/07:00am 12.0 SW 38 42 1011.9 - 6.0 - - - - - - -
26/06:30am 12.0 SW 39 47 1011.4 - 6.0 - - - - - - -
26/06:00am 12.2 SW 37 42 1011.3 - 6.0 - - - - - - -
26/05:30am 12.3 SW 33 41 1011.3 - 6.0 - - - - - - -
26/05:00am 12.5 SW 34 40 1011.3 - 6.0 - - - - - - -
26/04:30am 12.5 SW 34 38 1011.2 - 6.0 - - - - - - -
26/04:00am 12.7 SW 31 37 1010.9 - 6.0 - - - - - - -
26/03:30am 12.7 SW 33 37 1010.7 - 6.0 - - - - - - -
26/03:00am 13.2 SW 33 38 1010.5 - 6.0 - - - - - - -
26/02:56am 13.0 SW 35 38 1010.3 - 6.0 - - - - - - -
26/02:43am 12.8 SW 24 34 1010.7 - 6.0 - - - - - - -
26/02:30am 12.6 SW 26 34 1010.5 - 6.0 - - - - - - -
26/02:01am 13.1 SW 24 34 1010.4 - 5.4 - - - - - - -
26/02:00am 13.1 SW 25 34 1010.4 - 5.4 - - - - - - -
26/01:33am 13.4 SW 28 33 1010.5 - 5.0 - - - - - - -
26/01:30am 13.8 SW 11 23 1010.9 - 5.0 - - - - - - -
26/01:00am 13.9 E 3 5 1011.3 - 4.8 - - - - - - -
26/12:30am 13.7 E 5 7 1011.2 - 4.8 - - - - - - -
26/12:00am 13.9 E 5 8 1010.9 - 4.8 - - - - - - -
 
Date/Time
EST
Temp

°C
Wind Pressure Rain
since 9am
mm
Weather Cloud Vis
km
Sea
Height
m
Swell
Dir
 
Speed
knots
Gust
knots
hPa Trend Height
m
Period
s
Dir
25/11:30pm 14.1 E 9 11 1011.0 - 4.8 - - - - - - -
25/11:00pm 14.0 NE 5 7 1011.0 - 4.8 - - - - - - -
25/10:30pm 14.0 ENE 7 8 1010.9 - 4.8 - - - - - - -
25/10:00pm 14.1 ENE 9 11 1010.9 - 4.8 - - - - - - -
25/09:30pm 14.3 E 9 12 1010.6 - 4.8 - - - - - - -
25/09:00pm 14.8 SE 7 13 1010.4 - 4.8 - - - - - - -
25/08:30pm 14.6 SE 8 9 1010.4 - 4.8 - - - - - - -
25/08:00pm 14.5 SE 10 12 1010.1 - 4.8 - - - - - - -
25/07:30pm 14.6 W 7 9 1009.9 - 4.8 - - - - - - -
25/07:00pm 14.6 W 8 11 1009.6 - 4.8 - - - - - - -
25/06:30pm 14.3 WNW 9 11 1009.4 - 4.8 - - - - - - -
25/06:00pm 14.2 WNW 8 10 1008.9 - 4.8 - - - - - - -
25/05:30pm 14.6 W 8 11 1008.5 - 4.8 - - - - - - -
25/05:00pm 14.9 W 9 13 1008.3 - 4.8 - - - - - - -
25/04:30pm 15.0 W 9 14 1008.1 - 4.8 - - - - - - -
25/04:00pm 15.3 W 9 13 1007.8 - 4.8 - - - - - - -
25/03:30pm 15.5 W 10 14 1007.7 - 4.8 - - - - - - -
25/03:00pm 15.5 W 8 13 1007.4 - 4.8 - - - - - - -
25/02:30pm 15.2 WSW 9 13 1007.3 - 4.8 - - - - - - -
25/02:00pm 15.2 W 9 14 1007.3 - 4.8 - - - - - - -
25/01:30pm 15.1 W 8 12 1007.3 - 4.8 - - - - - - -
25/01:00pm 15.1 W 9 13 1007.3 - 4.8 - - - - - - -
25/12:30pm 15.0 W 9 13 1007.4 - 4.8 - - - - - - -
25/12:00pm 14.5 W 7 11 1007.6 - 4.8 - - - - - - -
25/11:30am 14.4 WNW 6 9 1007.6 - 3.8 - - - - - - -
25/11:00am 14.2 W 10 15 1007.6 - 2.0 - - - - - - -
25/10:30am 15.1 NW 7 15 1007.5 - 0.0 - - - - - - -
25/10:00am 14.9 W 13 17 1007.4 - 0.0 - - - - - - -
25/09:30am 15.0 WNW 11 18 1007.0 - 0.0 - - - - - - -
25/09:00am 14.6 WNW 14 18 1006.6 - 2.0 - - - - - - -
25/08:30am 14.4 NW 8 13 1006.7 - 2.0 - - - - - - -
25/08:00am 14.2 NW 10 16 1006.3 - 2.0 - - - - - - -
25/07:30am 13.9 NW 10 15 1006.0 - 2.0 - - - - - - -
25/07:00am 13.8 NW 7 11 1005.8 - 2.0 - - - - - - -
25/06:30am 13.6 NW 10 19 1005.6 - 2.0 - - - - - - -
25/06:00am 13.7 WNW 13 22 1005.1 - 1.6 - - - - - - -
25/05:30am 13.8 WNW 11 18 1005.3 - 1.0 - - - - - - -
25/05:00am 13.9 NW 12 17 1004.9 - 1.0 - - - - - - -
25/04:30am 14.8 W 8 13 1004.7 - 1.0 - - - - - - -
25/04:00am 14.4 WNW 13 17 1004.6 - 1.0 - - - - - - -
25/03:30am 14.3 WNW 15 20 1004.6 - 1.0 - - - - - - -
25/03:00am 14.0 WNW 14 18 1004.5 - 1.0 - - - - - - -
25/02:30am 14.2 WNW 12 17 1005.0 - 0.8 - - - - - - -
25/02:00am 14.5 W 11 17 1005.0 - 0.8 - - - - - - -
25/01:30am 14.5 W 11 19 1004.6 - 0.8 - - - - - - -
25/01:00am 14.6 W 11 18 1004.5 - 0.8 - - - - - - -
25/12:30am 14.6 W 10 14 1004.5 - 0.8 - - - - - - -
25/12:00am 14.6 WNW 13 16 1004.3 - 0.8 - - - - - - -
 
Date/Time
EST
Temp

°C
Wind Pressure Rain
since 9am
mm
Weather Cloud Vis
km
Sea
Height
m
Swell
Dir
 
Speed
knots
Gust
knots
hPa Trend Height
m
Period
s
Dir
24/11:30pm 14.3 WNW 11 16 1004.4 - 0.8 - - - - - - -
24/11:00pm 14.5 W 10 13 1004.3 - 0.8 - - - - - - -
24/10:30pm 14.5 W 10 15 1004.4 - 0.8 - - - - - - -
24/10:00pm 14.7 W 12 17 1004.3 - 0.8 - - - - - - -
24/09:30pm 15.4 W 11 15 1004.1 - 0.2 - - - - - - -
24/09:00pm 15.6 WSW 7 12 1004.1 - 0.0 - - - - - - -
24/08:30pm 15.4 WSW 8 13 1003.9 - 0.0 - - - - - - -
24/08:00pm 15.6 W 12 17 1003.4 - 0.0 - - - - - - -
24/07:30pm 15.7 W 14 22 1003.2 - 0.0 - - - - - - -
24/07:00pm 15.7 W 16 27 1002.8 - 0.0 - - - - - - -
24/06:30pm 15.8 W 21 33 1002.3 - 0.0 - - - - - - -
24/06:00pm 15.8 W 25 36 1001.4 - 0.0 - - - - - - -
24/05:30pm 15.8 W 20 33 1001.1 - 0.0 - - - - - - -
24/05:00pm 16.1 W 20 34 1001.2 - 0.0 - - - - - - -
24/04:30pm 16.2 W 19 31 1001.2 - 0.0 - - - - - - -
24/04:00pm 16.3 W 18 32 1001.2 - 0.0 - - - - - - -
24/03:33pm 16.4 W 17 31 1001.2 - 0.0 - - - - - - -
24/03:30pm 16.4 W 16 23 1001.3 - 0.0 - - - - - - -
24/03:03pm 16.7 W 15 25 1001.5 - 0.0 - - - - - - -
24/03:00pm 16.7 W 17 26 1001.3 - 0.0 - - - - - - -
24/02:46pm 17.1 W 15 30 1001.1 - 0.0 - - - - - - -
24/02:30pm 17.1 W 12 21 1001.3 - 0.0 - - - - - - -
24/02:00pm 16.8 WSW 14 26 1001.3 - 0.0 - - - - - - -
24/01:49pm 17.1 WNW 16 27 1001.4 - 0.0 - - - - - - -
24/01:30pm 16.9 W 10 19 1001.5 - 0.0 - - - - - - -
24/01:00pm 16.9 SE 6 11 1001.9 - 0.0 - - - - - - -
24/12:30pm 16.2 ENE 2 6 1002.2 - 0.0 - - - - - - -
24/12:00pm 15.6 SSW 4 13 1002.6 - 0.0 - - - - - - -
24/11:30am 15.1 N 4 9 1003.2 - 0.0 - - - - - - -
24/11:06am 15.0 WNW 15 25 1003.3 - 0.0 - - - - - - -
24/11:00am 15.1 WNW 17 25 1003.1 - 0.0 - - - - - - -
24/10:58am 15.2 W 17 25 1003.1 - 0.0 - - - - - - -
24/10:30am 15.5 W 4 9 1003.6 - 0.0 - - - - - - -
24/10:00am 15.7 N 1 3 1003.8 - 0.0 - - - - - - -
24/09:30am 15.7 N 4 5 1004.0 - 0.0 - - - - - - -
24/09:00am 15.6 NNE 6 7 1004.1 - 1.0 - - - - - - -
24/08:30am 15.5 ENE 8 10 1004.3 - 0.8 - - - - - - -
24/08:00am 15.5 E 9 10 1004.4 - 0.8 - - - - - - -
24/07:30am 15.4 E 10 12 1004.1 - 0.8 - - - - - - -
24/07:00am 15.3 E 9 11 1004.1 - 0.8 - - - - - - -
24/06:30am 15.3 ENE 9 11 1004.2 - 0.6 - - - - - - -
24/06:00am 15.2 ENE 9 11 1004.2 - 0.6 - - - - - - -
24/05:30am 15.2 ENE 8 10 1004.6 - 0.4 - - - - - - -
24/05:00am 15.1 ENE 10 13 1004.7 - 0.2 - - - - - - -
24/04:30am 15.2 ENE 12 15 1004.9 - 0.0 - - - - - - -
24/04:00am 15.1 ENE 14 17 1004.9 - 0.0 - - - - - - -
24/03:30am 15.0 ENE 12 14 1005.5 - 0.0 - - - - - - -

Other Formats:

Comma delimited format used in spreadsheet applications
http://www.bom.gov.au/fwo/IDT60701/IDT60701.94893.axf

JavaScript Object Notation format (JSON) in row-major order
http://www.bom.gov.au/fwo/IDT60701/IDT60701.94893.json